Time,TemperatureF,DewpointF,PressureIn,WindDirection,WindDirectionDegrees,WindSpeedMPH,WindSpeedGustMPH,Humidity,HourlyPrecipIn,Conditions,Clouds,dailyrainin,SoftwareType,DateUTC
2013-06-20 00:01:00,58.7,54.5,29.87,South,176,0.0,0.0,86,0.00,,---,0.00,VWS V14.01,2013-06-20 07:01:00,
2013-06-20 00:06:00,58.7,54.5,29.87,South,176,0.0,0.0,86,0.00,,---,0.00,VWS V14.01,2013-06-20 07:06:00,
2013-06-20 00:11:00,58.7,54.5,29.87,South,176,0.0,0.0,86,0.00,,---,0.00,VWS V14.01,2013-06-20 07:11:00,
2013-06-20 00:16:00,58.8,55.0,29.87,South,176,0.0,0.0,87,0.00,,---,0.00,VWS V14.01,2013-06-20 07:16:00,
2013-06-20 00:21:00,58.7,54.5,29.87,South,176,0.0,0.0,86,0.00,,---,0.00,VWS V14.01,2013-06-20 07:21:00,
2013-06-20 00:26:00,58.5,54.0,29.87,South,176,0.0,0.0,85,0.00,,---,0.00,VWS V14.01,2013-06-20 07:26:00,
2013-06-20 00:31:00,58.2,54.0,29.87,South,176,0.0,0.0,86,0.00,,---,0.00,VWS V14.01,2013-06-20 07:31:00,
2013-06-20 00:36:00,58.4,54.5,29.87,South,176,0.0,0.0,87,0.00,,---,0.00,VWS V14.01,2013-06-20 07:36:00,
2013-06-20 00:41:00,58.4,54.5,29.87,South,176,0.0,0.0,87,0.00,,---,0.00,VWS V14.01,2013-06-20 07:41:00,
2013-06-20 00:46:00,58.4,54.5,29.87,South,176,0.0,0.0,87,0.00,,---,0.00,VWS V14.01,2013-06-20 07:46:00,
2013-06-20 00:51:00,58.6,55.1,29.87,South,176,0.0,0.0,88,0.00,,---,0.00,VWS V14.01,2013-06-20 07:51:00,
2013-06-20 00:56:00,58.6,55.1,29.87,South,176,0.0,0.0,88,0.00,,---,0.00,VWS V14.01,2013-06-20 07:56:00,
2013-06-20 01:01:00,58.4,54.5,29.87,South,176,0.0,0.0,87,0.00,,---,0.00,VWS V14.01,2013-06-20 08:01:00,
2013-06-20 01:06:00,57.9,54.4,29.87,South,176,0.0,0.0,88,0.00,,---,0.00,VWS V14.01,2013-06-20 08:06:00,
2013-06-20 01:11:00,58.1,54.9,29.87,South,176,0.0,0.0,89,0.00,,---,0.00,VWS V14.01,2013-06-20 08:11:00,
2013-06-20 01:16:00,57.9,54.4,29.87,South,176,0.0,0.0,88,0.00,,---,0.00,VWS V14.01,2013-06-20 08:16:00,
2013-06-20 01:21:00,57.7,54.2,29.87,South,176,0.0,0.0,88,0.00,,---,0.00,VWS V14.01,2013-06-20 08:21:00,
2013-06-20 01:26:00,57.6,54.1,29.87,South,176,0.0,0.0,88,0.00,,---,0.00,VWS V14.01,2013-06-20 08:26:00,
2013-06-20 01:31:00,57.6,54.7,29.86,South,176,0.0,0.0,90,0.00,,---,0.00,VWS V14.01,2013-06-20 08:31:00,
2013-06-20 01:36:00,57.8,54.9,29.86,South,176,0.0,0.0,90,0.00,,---,0.00,VWS V14.01,2013-06-20 08:36:00,
2013-06-20 01:41:00,57.9,55.3,29.86,South,176,0.0,0.0,91,0.00,,---,0.00,VWS V14.01,2013-06-20 08:41:00,
2013-06-20 01:45:00,57.9,55.3,29.86,South,176,0.0,0.0,91,0.00,,---,0.00,VWS V14.01,2013-06-20 08:45:00,
2013-06-20 01:50:00,57.9,55.3,29.86,South,176,0.0,0.0,91,0.00,,---,0.00,VWS V14.01,2013-06-20 08:50:00,
2013-06-20 01:55:00,57.7,54.8,29.86,South,176,0.0,0.0,90,0.00,,---,0.00,VWS V14.01,2013-06-20 08:55:00,
2013-06-20 02:00:00,57.3,54.1,29.86,South,176,0.0,0.0,89,0.00,,---,0.00,VWS V14.01,2013-06-20 09:00:00,
2013-06-20 02:05:00,57.2,54.6,29.86,South,176,0.0,0.0,91,0.00,,---,0.00,VWS V14.01,2013-06-20 09:05:00,
2013-06-20 02:10:00,57.3,54.7,29.86,South,176,0.0,0.0,91,0.00,,---,0.00,VWS V14.01,2013-06-20 09:10:00,
2013-06-20 02:15:00,56.8,54.2,29.86,South,176,0.0,0.0,91,0.00,,---,0.00,VWS V14.01,2013-06-20 09:15:00,
2013-06-20 02:20:00,56.8,54.5,29.86,South,176,0.0,0.0,92,0.00,,---,0.00,VWS V14.01,2013-06-20 09:20:00,
2013-06-20 02:25:00,57.4,55.7,29.86,South,176,0.0,0.0,94,0.00,,---,0.00,VWS V14.01,2013-06-20 09:25:00,
2013-06-20 02:30:00,57.7,56.0,29.86,South,176,0.0,0.0,94,0.00,,---,0.00,VWS V14.01,2013-06-20 09:30:00,
2013-06-20 02:35:00,57.6,55.6,29.86,South,176,0.0,0.0,93,0.00,,---,0.00,VWS V14.01,2013-06-20 09:35:00,
2013-06-20 02:40:00,57.3,55.0,29.85,South,176,0.0,0.0,92,0.00,,---,0.00,VWS V14.01,2013-06-20 09:40:00,
2013-06-20 02:45:00,57.2,55.2,29.85,South,176,0.0,0.0,93,0.00,,---,0.00,VWS V14.01,2013-06-20 09:45:00,
2013-06-20 02:50:00,57.1,54.8,29.85,South,176,0.0,0.0,92,0.00,,---,0.00,VWS V14.01,2013-06-20 09:50:00,
2013-06-20 02:55:00,57.2,55.2,29.85,South,176,0.0,0.0,93,0.00,,---,0.00,VWS V14.01,2013-06-20 09:55:00,
2013-06-20 03:00:00,57.0,55.0,29.85,South,176,0.0,0.0,93,0.00,,---,0.00,VWS V14.01,2013-06-20 10:00:00,
2013-06-20 03:05:00,56.9,54.9,29.85,South,176,0.0,0.0,93,0.00,,---,0.00,VWS V14.01,2013-06-20 10:05:00,
2013-06-20 03:10:00,56.7,54.7,29.85,South,176,0.0,0.0,93,0.00,,---,0.00,VWS V14.01,2013-06-20 10:10:00,
2013-06-20 03:15:00,56.7,55.0,29.85,South,176,0.0,0.0,94,0.00,,---,0.00,VWS V14.01,2013-06-20 10:15:00,
2013-06-20 03:20:00,56.7,55.0,29.85,South,176,0.0,0.0,94,0.00,,---,0.00,VWS V14.01,2013-06-20 10:20:00,
2013-06-20 03:25:00,56.8,55.1,29.85,South,176,0.0,0.0,94,0.00,,---,0.00,VWS V14.01,2013-06-20 10:25:00,
2013-06-20 03:30:00,57.3,55.9,29.85,South,176,0.0,0.0,95,0.00,,---,0.00,VWS V14.01,2013-06-20 10:30:00,
2013-06-20 03:35:00,57.5,56.1,29.85,South,176,0.0,0.0,95,0.00,,---,0.00,VWS V14.01,2013-06-20 10:35:00,
2013-06-20 03:40:00,57.8,56.4,29.85,South,176,0.0,0.0,95,0.00,,---,0.00,VWS V14.01,2013-06-20 10:40:00,
2013-06-20 03:45:00,57.8,56.4,29.85,South,176,0.0,0.0,95,0.00,,---,0.00,VWS V14.01,2013-06-20 10:45:00,
2013-06-20 03:50:00,57.7,56.3,29.85,South,176,0.0,0.0,95,0.00,,---,0.00,VWS V14.01,2013-06-20 10:50:00,
2013-06-20 03:55:00,57.5,55.8,29.85,South,176,0.0,0.0,94,0.00,,---,0.00,VWS V14.01,2013-06-20 10:55:00,
2013-06-20 04:00:00,57.3,55.6,29.85,South,176,0.0,0.0,94,0.00,,---,0.00,VWS V14.01,2013-06-20 11:00:00,
2013-06-20 04:05:00,57.0,55.3,29.85,South,176,0.0,0.0,94,0.00,,---,0.00,VWS V14.01,2013-06-20 11:05:00,
2013-06-20 04:10:00,56.8,55.1,29.84,South,176,0.0,0.0,94,0.00,,---,0.00,VWS V14.01,2013-06-20 11:10:00,
2013-06-20 04:15:00,56.5,54.5,29.84,South,176,0.0,0.0,93,0.00,,---,0.00,VWS V14.01,2013-06-20 11:15:00,
2013-06-20 04:20:00,56.4,54.7,29.84,South,176,0.0,0.0,94,0.00,,---,0.00,VWS V14.01,2013-06-20 11:20:00,
2013-06-20 04:25:00,56.2,54.5,29.84,South,176,0.0,0.0,94,0.00,,---,0.00,VWS V14.01,2013-06-20 11:25:00,
2013-06-20 04:30:00,56.0,54.3,29.85,South,176,0.0,0.0,94,0.00,,---,0.00,VWS V14.01,2013-06-20 11:30:00,
2013-06-20 04:35:00,55.9,54.2,29.85,South,176,0.0,0.0,94,0.00,,---,0.00,VWS V14.01,2013-06-20 11:35:00,
2013-06-20 04:40:00,55.8,54.1,29.85,South,176,0.0,0.0,94,0.00,,---,0.00,VWS V14.01,2013-06-20 11:40:00,
2013-06-20 04:45:00,55.8,54.4,29.85,South,176,0.0,0.0,95,0.00,,---,0.00,VWS V14.01,2013-06-20 11:45:00,
2013-06-20 04:50:00,55.7,54.3,29.85,South,176,0.0,0.0,95,0.00,,---,0.00,VWS V14.01,2013-06-20 11:50:00,
2013-06-20 04:55:00,55.7,54.3,29.85,South,176,0.0,0.0,95,0.00,,---,0.00,VWS V14.01,2013-06-20 11:55:00,
2013-06-20 05:00:00,55.9,54.5,29.85,South,176,0.0,0.0,95,0.00,,---,0.00,VWS V14.01,2013-06-20 12:00:00,
2013-06-20 05:05:00,56.3,55.2,29.85,South,176,0.0,0.0,96,0.00,,---,0.00,VWS V14.01,2013-06-20 12:05:00,
2013-06-20 05:10:00,56.4,55.0,29.85,South,176,0.0,0.0,95,0.00,,---,0.00,VWS V14.01,2013-06-20 12:10:00,
2013-06-20 05:15:00,56.3,54.9,29.85,South,176,0.0,0.0,95,0.00,,---,0.00,VWS V14.01,2013-06-20 12:15:00,
2013-06-20 05:20:00,56.2,54.8,29.85,South,176,0.0,0.0,95,0.00,,---,0.00,VWS V14.01,2013-06-20 12:20:00,
2013-06-20 05:25:00,56.3,54.9,29.85,South,176,0.0,0.0,95,0.00,,---,0.00,VWS V14.01,2013-06-20 12:25:00,
2013-06-20 05:30:00,57.3,56.2,29.86,South,176,0.0,0.0,96,0.00,,---,0.00,VWS V14.01,2013-06-20 12:30:00,
2013-06-20 05:35:00,57.4,56.3,29.86,South,176,0.0,0.0,96,0.00,,---,0.00,VWS V14.01,2013-06-20 12:35:00,
2013-06-20 05:40:00,57.1,55.7,29.86,South,176,0.0,0.0,95,0.00,,---,0.00,VWS V14.01,2013-06-20 12:40:00,
2013-06-20 05:45:00,56.8,55.4,29.86,South,176,0.0,0.0,95,0.00,,---,0.00,VWS V14.01,2013-06-20 12:45:00,
2013-06-20 05:50:00,56.4,55.0,29.86,South,176,0.0,0.0,95,0.00,,---,0.00,VWS V14.01,2013-06-20 12:50:00,
2013-06-20 05:55:00,56.3,54.9,29.86,South,176,0.0,0.0,95,0.00,,---,0.00,VWS V14.01,2013-06-20 12:55:00,
2013-06-20 06:00:00,56.4,55.0,29.86,South,176,0.0,0.0,95,0.00,,---,0.00,VWS V14.01,2013-06-20 13:00:00,
2013-06-20 06:05:00,56.6,55.5,29.87,South,176,0.0,0.0,96,0.00,,---,0.00,VWS V14.01,2013-06-20 13:05:00,
2013-06-20 06:10:00,56.8,55.7,29.87,South,176,0.0,0.0,96,0.00,,---,0.00,VWS V14.01,2013-06-20 13:10:00,
2013-06-20 06:15:00,56.9,55.8,29.87,South,176,0.0,0.0,96,0.00,,---,0.00,VWS V14.01,2013-06-20 13:15:00,
2013-06-20 06:20:00,56.8,55.7,29.87,South,176,0.0,0.0,96,0.00,,---,0.00,VWS V14.01,2013-06-20 13:20:00,
2013-06-20 06:25:00,56.8,55.7,29.87,South,176,0.0,0.0,96,0.00,,---,0.00,VWS V14.01,2013-06-20 13:25:00,
2013-06-20 06:30:00,56.9,55.8,29.87,South,176,0.0,0.0,96,0.00,,---,0.00,VWS V14.01,2013-06-20 13:30:00,
2013-06-20 06:35:00,57.7,56.9,29.87,South,176,0.0,0.0,97,0.00,,---,0.00,VWS V14.01,2013-06-20 13:35:00,
2013-06-20 06:40:00,58.3,57.5,29.88,South,176,0.0,0.0,97,0.00,,---,0.00,VWS V14.01,2013-06-20 13:40:00,
2013-06-20 06:45:00,58.5,57.7,29.88,South,176,0.0,0.0,97,0.00,,---,0.00,VWS V14.01,2013-06-20 13:45:00,
2013-06-20 06:50:00,58.5,57.4,29.88,South,176,0.0,0.0,96,0.00,,---,0.00,VWS V14.01,2013-06-20 13:50:00,
2013-06-20 06:55:00,58.7,57.8,29.88,South,176,0.0,0.0,97,0.00,,---,0.00,VWS V14.01,2013-06-20 13:55:00,
2013-06-20 07:00:00,59.1,58.2,29.88,South,176,0.0,0.0,97,0.00,,---,0.00,VWS V14.01,2013-06-20 14:00:00,
2013-06-20 07:05:00,59.4,58.5,29.88,South,176,0.0,0.0,97,0.00,,---,0.00,VWS V14.01,2013-06-20 14:05:00,
2013-06-20 07:10:00,59.7,58.8,29.89,South,176,0.0,1.0,97,0.00,,---,0.00,VWS V14.01,2013-06-20 14:10:00,
2013-06-20 07:15:00,59.9,59.0,29.89,South,176,0.0,1.0,97,0.00,,---,0.00,VWS V14.01,2013-06-20 14:15:00,
2013-06-20 07:20:00,60.0,59.2,29.89,South,176,0.0,1.0,97,0.00,,---,0.00,VWS V14.01,2013-06-20 14:20:00,
2013-06-20 07:25:00,60.0,58.9,29.89,South,176,0.0,1.0,96,0.00,,---,0.00,VWS V14.01,2013-06-20 14:25:00,
2013-06-20 07:30:00,60.4,59.5,29.89,South,176,0.0,0.0,97,0.00,,---,0.00,VWS V14.01,2013-06-20 14:30:00,
2013-06-20 07:35:00,61.1,60.2,29.89,South,176,0.0,1.0,97,0.00,,---,0.00,VWS V14.01,2013-06-20 14:35:00,
2013-06-20 07:40:00,61.6,60.7,29.90,South,176,0.0,1.0,97,0.00,,---,0.00,VWS V14.01,2013-06-20 14:40:00,
2013-06-20 07:45:00,62.2,61.3,29.90,South,176,0.0,1.0,97,0.00,,---,0.00,VWS V14.01,2013-06-20 14:45:00,
2013-06-20 07:50:00,62.5,61.3,29.90,South,176,0.0,1.0,96,0.00,,---,0.00,VWS V14.01,2013-06-20 14:50:00,
2013-06-20 07:55:00,62.7,60.7,29.90,SE,140,0.0,4.0,93,0.00,,---,0.00,VWS V14.01,2013-06-20 14:55:00,
2013-06-20 08:00:00,62.8,60.8,29.90,SE,142,0.0,0.0,93,0.00,,---,0.00,VWS V14.01,2013-06-20 15:00:00,
2013-06-20 08:05:00,63.0,60.3,29.90,ESE,117,0.0,5.0,91,0.00,,---,0.00,VWS V14.01,2013-06-20 15:05:00,
2013-06-20 08:10:00,63.8,60.8,29.90,ESE,119,0.0,5.0,90,0.00,,---,0.00,VWS V14.01,2013-06-20 15:10:00,
2013-06-20 08:15:00,64.3,60.7,29.90,SE,135,0.0,5.0,88,0.00,,---,0.00,VWS V14.01,2013-06-20 15:15:00,
2013-06-20 08:20:00,64.8,60.5,29.90,SSE,147,0.0,5.0,86,0.00,,---,0.00,VWS V14.01,2013-06-20 15:20:00,
2013-06-20 08:25:00,65.3,60.3,29.90,ESE,122,0.0,5.0,84,0.00,,---,0.00,VWS V14.01,2013-06-20 15:25:00,
2013-06-20 08:30:00,65.8,60.2,29.90,ESE,118,0.0,1.0,82,0.00,,---,0.00,VWS V14.01,2013-06-20 15:30:00,
2013-06-20 08:35:00,66.1,59.8,29.91,ESE,116,0.0,5.0,80,0.00,,---,0.00,VWS V14.01,2013-06-20 15:35:00,
2013-06-20 08:40:00,66.3,60.0,29.90,ESE,120,4.0,6.0,80,0.00,,---,0.00,VWS V14.01,2013-06-20 15:40:00,
2013-06-20 08:45:00,66.5,59.8,29.91,SSE,167,0.0,6.0,79,0.00,,---,0.00,VWS V14.01,2013-06-20 15:45:00,
2013-06-20 08:50:00,66.7,58.9,29.91,ESE,105,0.0,6.0,76,0.00,,---,0.00,VWS V14.01,2013-06-20 15:50:00,
2013-06-20 08:55:00,67.3,60.2,29.91,SW,228,0.0,6.0,78,0.00,,---,0.00,VWS V14.01,2013-06-20 15:55:00,
2013-06-20 09:00:00,68.1,60.3,29.91,WNW,284,4.0,4.0,76,0.00,,---,0.00,VWS V14.01,2013-06-20 16:00:00,
2013-06-20 09:05:00,68.4,59.4,29.91,WNW,286,0.0,4.0,73,0.00,,---,0.00,VWS V14.01,2013-06-20 16:05:00,
2013-06-20 09:10:00,68.3,59.7,29.91,SE,138,0.0,5.0,74,0.00,,---,0.00,VWS V14.01,2013-06-20 16:10:00,
2013-06-20 09:15:00,68.8,60.2,29.91,ESE,116,0.0,5.0,74,0.00,,---,0.00,VWS V14.01,2013-06-20 16:15:00,
2013-06-20 09:20:00,69.0,59.2,29.91,SSE,161,6.0,7.0,71,0.00,,---,0.00,VWS V14.01,2013-06-20 16:20:00,
2013-06-20 09:25:00,68.5,58.7,29.91,SE,126,0.0,7.0,71,0.00,,---,0.00,VWS V14.01,2013-06-20 16:25:00,
2013-06-20 09:30:00,68.8,59.4,29.91,SSW,199,0.0,3.0,72,0.00,,---,0.00,VWS V14.01,2013-06-20 16:30:00,
2013-06-20 09:35:00,69.5,60.1,29.91,ESE,120,0.0,9.0,72,0.00,,---,0.00,VWS V14.01,2013-06-20 16:35:00,
2013-06-20 09:40:00,69.7,59.9,29.91,WNW,302,0.0,9.0,71,0.00,,---,0.00,VWS V14.01,2013-06-20 16:40:00,
2013-06-20 09:45:00,70.2,60.0,29.91,SW,221,0.0,9.0,70,0.00,,---,0.00,VWS V14.01,2013-06-20 16:45:00,
2013-06-20 09:50:00,70.7,60.0,29.91,West,281,0.0,9.0,69,0.00,,---,0.00,VWS V14.01,2013-06-20 16:50:00,
2013-06-20 09:55:00,70.9,60.2,29.91,SW,216,0.0,9.0,69,0.00,,---,0.00,VWS V14.01,2013-06-20 16:55:00,
2013-06-20 10:00:00,71.3,60.2,29.91,WNW,285,3.0,3.0,68,0.00,,---,0.00,VWS V14.01,2013-06-20 17:00:00,
2013-06-20 10:05:00,71.9,59.9,29.91,SE,126,2.0,6.0,66,0.00,,---,0.00,VWS V14.01,2013-06-20 17:05:00,
2013-06-20 10:10:00,71.9,59.5,29.91,SW,227,3.0,8.0,65,0.00,,---,0.00,VWS V14.01,2013-06-20 17:10:00,
2013-06-20 10:15:00,71.9,59.9,29.91,SE,132,0.0,8.0,66,0.00,,---,0.00,VWS V14.01,2013-06-20 17:15:00,
2013-06-20 10:20:00,72.2,60.2,29.91,WSW,238,1.0,8.0,66,0.00,,---,0.00,VWS V14.01,2013-06-20 17:20:00,
2013-06-20 10:25:00,72.6,60.2,29.91,SSE,147,0.0,8.0,65,0.00,,---,0.00,VWS V14.01,2013-06-20 17:25:00,
2013-06-20 10:30:00,73.4,60.0,29.91,South,169,0.0,2.0,63,0.00,,---,0.00,VWS V14.01,2013-06-20 17:30:00,
2013-06-20 10:35:00,74.0,59.7,29.91,NE,46,1.0,5.0,61,0.00,,---,0.00,VWS V14.01,2013-06-20 17:35:00,
2013-06-20 10:40:00,74.5,60.2,29.91,ESE,116,0.0,5.0,61,0.00,,---,0.00,VWS V14.01,2013-06-20 17:40:00,
2013-06-20 10:45:00,74.6,59.8,29.91,NNE,31,0.0,6.0,60,0.00,,---,0.00,VWS V14.01,2013-06-20 17:45:00,
2013-06-20 10:50:00,74.7,59.4,29.91,SSW,204,0.0,6.0,59,0.00,,---,0.00,VWS V14.01,2013-06-20 17:50:00,
2013-06-20 10:55:00,74.9,59.1,29.91,West,259,4.0,6.0,58,0.00,,---,0.00,VWS V14.01,2013-06-20 17:55:00,
2013-06-20 11:00:00,74.8,59.0,29.91,SSE,154,0.0,2.0,58,0.00,,---,0.00,VWS V14.01,2013-06-20 18:00:00,
2013-06-20 11:05:00,74.3,58.1,29.91,SE,137,2.0,9.0,57,0.00,,---,0.00,VWS V14.01,2013-06-20 18:05:00,
2013-06-20 11:10:00,74.2,59.0,29.91,SSW,196,1.0,9.0,59,0.00,,---,0.00,VWS V14.01,2013-06-20 18:10:00,
2013-06-20 11:15:00,74.3,59.1,29.90,SW,224,0.0,9.0,59,0.00,,---,0.00,VWS V14.01,2013-06-20 18:15:00,
2013-06-20 11:20:00,74.5,58.8,29.90,South,187,6.0,9.0,58,0.00,,---,0.00,VWS V14.01,2013-06-20 18:20:00,
2013-06-20 11:25:00,74.2,58.5,29.90,South,173,0.0,9.0,58,0.00,,---,0.00,VWS V14.01,2013-06-20 18:25:00,
2013-06-20 11:30:00,74.4,59.6,29.90,SE,136,5.0,5.0,60,0.00,,---,0.00,VWS V14.01,2013-06-20 18:30:00,
2013-06-20 11:35:00,74.7,59.0,29.90,East,94,0.0,8.0,58,0.00,,---,0.00,VWS V14.01,2013-06-20 18:35:00,
2013-06-20 11:40:00,74.7,59.0,29.90,South,169,0.0,10.0,58,0.00,,---,0.00,VWS V14.01,2013-06-20 18:40:00,
2013-06-20 11:45:00,74.8,58.6,29.90,South,175,0.0,10.0,57,0.00,,---,0.00,VWS V14.01,2013-06-20 18:45:00,
2013-06-20 11:50:00,75.5,59.2,29.90,SSE,168,0.0,10.0,57,0.00,,---,0.00,VWS V14.01,2013-06-20 18:50:00,
2013-06-20 11:55:00,76.2,58.9,29.90,SSE,150,2.0,10.0,55,0.00,,---,0.00,VWS V14.01,2013-06-20 18:55:00,
2013-06-20 12:00:00,75.5,58.2,29.90,ESE,107,6.0,9.0,55,0.00,,---,0.00,VWS V14.01,2013-06-20 19:00:00,
2013-06-20 12:05:00,75.5,58.7,29.90,SE,146,0.0,9.0,56,0.00,,---,0.00,VWS V14.01,2013-06-20 19:05:00,
2013-06-20 12:10:00,75.7,59.4,29.89,SSW,196,1.0,9.0,57,0.00,,---,0.00,VWS V14.01,2013-06-20 19:10:00,
2013-06-20 12:15:00,76.4,59.6,29.89,SE,144,0.0,9.0,56,0.00,,---,0.00,VWS V14.01,2013-06-20 19:15:00,
2013-06-20 12:20:00,78.1,58.5,29.89,ENE,71,4.0,9.0,51,0.00,,---,0.00,VWS V14.01,2013-06-20 19:20:00,
2013-06-20 12:25:00,77.9,58.9,29.89,SW,231,1.0,9.0,52,0.00,,---,0.00,VWS V14.01,2013-06-20 19:25:00,
2013-06-20 12:30:00,77.2,58.2,29.89,SE,142,0.0,5.0,52,0.00,,---,0.00,VWS V14.01,2013-06-20 19:30:00,
2013-06-20 12:35:00,76.9,58.5,29.89,ESE,115,4.0,9.0,53,0.00,,---,0.00,VWS V14.01,2013-06-20 19:35:00,
2013-06-20 12:40:00,76.6,58.7,29.89,NW,306,0.0,9.0,54,0.00,,---,0.00,VWS V14.01,2013-06-20 19:40:00,
2013-06-20 12:45:00,76.4,57.5,29.89,South,190,0.0,9.0,52,0.00,,---,0.00,VWS V14.01,2013-06-20 19:45:00,
2013-06-20 12:50:00,77.3,57.8,29.89,ESE,119,2.0,9.0,51,0.00,,---,0.00,VWS V14.01,2013-06-20 19:50:00,
2013-06-20 12:55:00,77.9,58.3,29.89,SSW,202,0.0,9.0,51,0.00,,---,0.00,VWS V14.01,2013-06-20 19:55:00,
2013-06-20 13:00:00,78.9,59.2,29.89,SSW,205,5.0,6.0,51,0.00,,---,0.00,VWS V14.01,2013-06-20 20:00:00,
2013-06-20 13:05:00,78.8,58.6,29.89,SSE,148,1.0,6.0,50,0.00,,---,0.00,VWS V14.01,2013-06-20 20:05:00,
2013-06-20 13:10:00,78.4,58.2,29.89,SSE,148,0.0,8.0,50,0.00,,---,0.00,VWS V14.01,2013-06-20 20:10:00,
2013-06-20 13:15:00,78.2,58.6,29.88,SE,142,4.0,9.0,51,0.00,,---,0.00,VWS V14.01,2013-06-20 20:15:00,
2013-06-20 13:20:00,78.4,59.3,29.88,WNW,294,0.0,9.0,52,0.00,,---,0.00,VWS V14.01,2013-06-20 20:20:00,
2013-06-20 13:25:00,79.2,59.0,29.88,ESE,121,6.0,9.0,50,0.00,,---,0.00,VWS V14.01,2013-06-20 20:25:00,
2013-06-20 13:30:00,79.3,59.1,29.88,SSW,201,5.0,8.0,50,0.00,,---,0.00,VWS V14.01,2013-06-20 20:30:00,
2013-06-20 13:35:00,79.4,59.2,29.88,West,263,0.0,8.0,50,0.00,,---,0.00,VWS V14.01,2013-06-20 20:35:00,
2013-06-20 13:40:00,79.8,59.0,29.88,SW,220,0.0,10.0,49,0.00,,---,0.00,VWS V14.01,2013-06-20 20:40:00,
2013-06-20 13:45:00,80.2,59.9,29.88,West,281,3.0,10.0,50,0.00,,---,0.00,VWS V14.01,2013-06-20 20:45:00,
2013-06-20 13:50:00,80.0,59.7,29.88,SE,134,7.0,10.0,50,0.00,,---,0.00,VWS V14.01,2013-06-20 20:50:00,
2013-06-20 13:55:00,79.2,59.0,29.88,East,91,0.0,10.0,50,0.00,,---,0.00,VWS V14.01,2013-06-20 20:55:00,
2013-06-20 14:00:00,79.1,58.9,29.88,SW,214,1.0,7.0,50,0.00,,---,0.00,VWS V14.01,2013-06-20 21:00:00,
2013-06-20 14:05:00,79.5,59.8,29.87,WNW,284,0.0,7.0,51,0.00,,---,0.00,VWS V14.01,2013-06-20 21:05:00,
2013-06-20 14:10:00,81.2,59.7,29.88,West,281,0.0,7.0,48,0.00,,---,0.00,VWS V14.01,2013-06-20 21:10:00,
2013-06-20 14:15:00,81.2,59.1,29.88,ESE,114,0.0,8.0,47,0.00,,---,0.00,VWS V14.01,2013-06-20 21:15:00,
2013-06-20 14:20:00,81.2,59.7,29.88,East,90,0.0,8.0,48,0.00,,---,0.00,VWS V14.01,2013-06-20 21:20:00,
2013-06-20 14:25:00,81.0,59.5,29.88,SSW,193,6.0,8.0,48,0.00,,---,0.00,VWS V14.01,2013-06-20 21:25:00,
2013-06-20 14:30:00,79.6,59.3,29.88,SE,130,4.0,9.0,50,0.00,,---,0.00,VWS V14.01,2013-06-20 21:30:00,
2013-06-20 14:35:00,78.6,59.0,29.87,South,175,0.0,12.0,51,0.00,,---,0.00,VWS V14.01,2013-06-20 21:35:00,
2013-06-20 14:40:00,78.8,58.6,29.87,SSW,212,0.0,12.0,50,0.00,,---,0.00,VWS V14.01,2013-06-20 21:40:00,
2013-06-20 14:44:00,79.7,59.4,29.87,ESE,121,7.0,12.0,50,0.00,,---,0.00,VWS V14.01,2013-06-20 21:44:00,
2013-06-20 14:49:00,79.9,59.0,29.87,East,98,1.0,12.0,49,0.00,,---,0.00,VWS V14.01,2013-06-20 21:49:00,
2013-06-20 14:54:00,80.1,59.2,29.87,SW,227,2.0,12.0,49,0.00,,---,0.00,VWS V14.01,2013-06-20 21:54:00,
2013-06-20 14:59:00,80.6,60.3,29.87,South,184,1.0,3.0,50,0.00,,---,0.00,VWS V14.01,2013-06-20 21:59:00,
2013-06-20 15:04:00,81.1,59.6,29.87,WNW,286,0.0,6.0,48,0.00,,---,0.00,VWS V14.01,2013-06-20 22:04:00,
2013-06-20 15:09:00,81.1,59.6,29.87,SE,143,0.0,6.0,48,0.00,,---,0.00,VWS V14.01,2013-06-20 22:09:00,
2013-06-20 15:14:00,80.8,59.9,29.87,SSE,159,0.0,10.0,49,0.00,,---,0.00,VWS V14.01,2013-06-20 22:14:00,
2013-06-20 15:19:00,80.4,59.5,29.87,SSE,157,7.0,10.0,49,0.00,,---,0.00,VWS V14.01,2013-06-20 22:19:00,
2013-06-20 15:24:00,79.8,59.5,29.87,SW,219,4.0,10.0,50,0.00,,---,0.00,VWS V14.01,2013-06-20 22:24:00,
2013-06-20 15:29:00,79.8,60.1,29.87,SSE,161,0.0,9.0,51,0.00,,---,0.00,VWS V14.01,2013-06-20 22:29:00,
2013-06-20 15:34:00,80.4,60.1,29.87,SSW,211,4.0,9.0,50,0.00,,---,0.00,VWS V14.01,2013-06-20 22:34:00,
2013-06-20 15:39:00,80.5,60.2,29.87,West,261,3.0,9.0,50,0.00,,---,0.00,VWS V14.01,2013-06-20 22:39:00,
2013-06-20 15:44:00,80.9,60.0,29.86,SSE,157,2.0,9.0,49,0.00,,---,0.00,VWS V14.01,2013-06-20 22:44:00,
2013-06-20 15:49:00,80.9,60.5,29.87,SSE,150,2.0,9.0,50,0.00,,---,0.00,VWS V14.01,2013-06-20 22:49:00,
2013-06-20 15:54:00,80.1,59.8,29.86,SSW,213,4.0,9.0,50,0.00,,---,0.00,VWS V14.01,2013-06-20 22:54:00,
2013-06-20 15:59:00,79.9,60.2,29.87,South,169,0.0,7.0,51,0.00,,---,0.00,VWS V14.01,2013-06-20 22:59:00,
2013-06-20 16:04:00,80.5,60.2,29.87,WNW,290,3.0,7.0,50,0.00,,---,0.00,VWS V14.01,2013-06-20 23:04:00,
2013-06-20 16:09:00,80.9,60.0,29.86,SSE,166,6.0,7.0,49,0.00,,---,0.00,VWS V14.01,2013-06-20 23:09:00,
2013-06-20 16:14:00,81.5,60.5,29.86,SW,234,1.0,7.0,49,0.00,,---,0.00,VWS V14.01,2013-06-20 23:14:00,
2013-06-20 16:19:00,81.0,59.5,29.86,South,184,1.0,7.0,48,0.00,,---,0.00,VWS V14.01,2013-06-20 23:19:00,
2013-06-20 16:24:00,80.3,59.4,29.86,ESE,109,9.0,12.0,49,0.00,,---,0.00,VWS V14.01,2013-06-20 23:24:00,
2013-06-20 16:29:00,80.6,60.3,29.86,SSW,205,0.0,2.0,50,0.00,,---,0.00,VWS V14.01,2013-06-20 23:29:00,
2013-06-20 16:34:00,80.9,59.4,29.86,South,180,1.0,13.0,48,0.00,,---,0.00,VWS V14.01,2013-06-20 23:34:00,
2013-06-20 16:39:00,80.3,59.4,29.86,ESE,120,4.0,13.0,49,0.00,,---,0.00,VWS V14.01,2013-06-20 23:39:00,
2013-06-20 16:44:00,80.5,59.6,29.86,SSE,162,0.0,13.0,49,0.00,,---,0.00,VWS V14.01,2013-06-20 23:44:00,
2013-06-20 16:49:00,79.8,59.0,29.86,SSW,205,0.0,13.0,49,0.00,,---,0.00,VWS V14.01,2013-06-20 23:49:00,
2013-06-20 16:54:00,79.4,59.2,29.86,ESE,118,0.0,13.0,50,0.00,,---,0.00,VWS V14.01,2013-06-20 23:54:00,
2013-06-20 16:59:00,79.7,58.9,29.86,WNW,302,2.0,4.0,49,0.00,,---,0.00,VWS V14.01,2013-06-20 23:59:00,
2013-06-20 17:04:00,79.3,59.1,29.86,SE,128,1.0,9.0,50,0.00,,---,0.00,VWS V14.01,2013-06-21 00:04:00,
2013-06-20 17:09:00,79.2,59.5,29.86,South,174,1.0,9.0,51,0.00,,---,0.00,VWS V14.01,2013-06-21 00:09:00,
2013-06-20 17:14:00,79.3,59.6,29.86,SSE,159,0.0,9.0,51,0.00,,---,0.00,VWS V14.01,2013-06-21 00:14:00,
2013-06-20 17:19:00,79.2,60.1,29.86,SE,132,1.0,9.0,52,0.00,,---,0.00,VWS V14.01,2013-06-21 00:19:00,
2013-06-20 17:24:00,78.8,60.2,29.86,SSE,150,0.0,9.0,53,0.00,,---,0.00,VWS V14.01,2013-06-21 00:24:00,
2013-06-20 17:29:00,79.0,60.4,29.86,SE,127,0.0,5.0,53,0.00,,---,0.00,VWS V14.01,2013-06-21 00:29:00,
2013-06-20 17:34:00,78.7,60.2,29.86,SSW,202,0.0,5.0,53,0.00,,---,0.00,VWS V14.01,2013-06-21 00:34:00,
2013-06-20 17:39:00,79.0,60.4,29.86,South,180,0.0,5.0,53,0.00,,---,0.00,VWS V14.01,2013-06-21 00:39:00,
2013-06-20 17:44:00,78.9,59.8,29.86,SE,145,2.0,7.0,52,0.00,,---,0.00,VWS V14.01,2013-06-21 00:44:00,
2013-06-20 17:49:00,78.3,59.8,29.86,SSW,203,0.0,8.0,53,0.00,,---,0.00,VWS V14.01,2013-06-21 00:49:00,
2013-06-20 17:54:00,79.0,59.9,29.86,East,95,1.0,8.0,52,0.00,,---,0.00,VWS V14.01,2013-06-21 00:54:00,
2013-06-20 17:59:00,78.5,58.3,29.85,SSE,162,1.0,7.0,50,0.00,,---,0.00,VWS V14.01,2013-06-21 00:59:00,
2013-06-20 18:04:00,78.1,58.0,29.86,SE,143,0.0,7.0,50,0.00,,---,0.00,VWS V14.01,2013-06-21 01:04:00,
2013-06-20 18:09:00,77.9,57.8,29.85,South,175,0.0,7.0,50,0.00,,---,0.00,VWS V14.01,2013-06-21 01:09:00,
2013-06-20 18:14:00,78.0,57.3,29.85,SSE,150,7.0,8.0,49,0.00,,---,0.00,VWS V14.01,2013-06-21 01:14:00,
2013-06-20 18:19:00,77.6,57.0,29.85,NE,46,0.0,8.0,49,0.00,,---,0.00,VWS V14.01,2013-06-21 01:19:00,
2013-06-20 18:24:00,77.6,56.4,29.85,SSW,202,0.0,8.0,48,0.00,,---,0.00,VWS V14.01,2013-06-21 01:24:00,
2013-06-20 18:29:00,77.4,56.2,29.85,SSW,201,0.0,1.0,48,0.00,,---,0.00,VWS V14.01,2013-06-21 01:29:00,
2013-06-20 18:34:00,77.2,56.0,29.86,SE,143,0.0,5.0,48,0.00,,---,0.00,VWS V14.01,2013-06-21 01:34:00,
2013-06-20 18:39:00,76.7,55.5,29.85,SE,137,0.0,5.0,48,0.00,,---,0.00,VWS V14.01,2013-06-21 01:39:00,
2013-06-20 18:44:00,76.2,55.7,29.85,SSW,196,0.0,6.0,49,0.00,,---,0.00,VWS V14.01,2013-06-21 01:44:00,
2013-06-20 18:49:00,75.9,54.8,29.85,SSW,201,0.0,6.0,48,0.00,,---,0.00,VWS V14.01,2013-06-21 01:49:00,
2013-06-20 18:54:00,75.5,54.5,29.86,ENE,60,1.0,6.0,48,0.00,,---,0.00,VWS V14.01,2013-06-21 01:54:00,
2013-06-20 18:59:00,75.0,54.0,29.85,SE,125,0.0,1.0,48,0.00,,---,0.00,VWS V14.01,2013-06-21 01:59:00,
2013-06-20 19:04:00,74.7,54.3,29.85,ENE,74,0.0,1.0,49,0.00,,---,0.00,VWS V14.01,2013-06-21 02:04:00,
2013-06-20 19:09:00,74.5,54.1,29.86,SW,234,0.0,2.0,49,0.00,,---,0.00,VWS V14.01,2013-06-21 02:09:00,
2013-06-20 19:14:00,74.2,53.8,29.86,South,187,0.0,2.0,49,0.00,,---,0.00,VWS V14.01,2013-06-21 02:14:00,
2013-06-20 19:19:00,73.8,54.0,29.86,SE,146,0.0,4.0,50,0.00,,---,0.00,VWS V14.01,2013-06-21 02:19:00,
2013-06-20 19:24:00,73.5,53.2,29.86,SSE,167,0.0,4.0,49,0.00,,---,0.00,VWS V14.01,2013-06-21 02:24:00,
2013-06-20 19:29:00,73.3,53.0,29.86,SSE,167,0.0,1.0,49,0.00,,---,0.00,VWS V14.01,2013-06-21 02:29:00,
2013-06-20 19:34:00,73.0,53.3,29.86,SSE,167,0.0,1.0,50,0.00,,---,0.00,VWS V14.01,2013-06-21 02:34:00,
2013-06-20 19:39:00,72.7,52.5,29.86,SSE,167,0.0,1.0,49,0.00,,---,0.00,VWS V14.01,2013-06-21 02:39:00,
2013-06-20 19:44:00,72.4,52.7,29.86,SSE,167,0.0,1.0,50,0.00,,---,0.00,VWS V14.01,2013-06-21 02:44:00,
2013-06-20 19:49:00,72.2,53.1,29.87,SSE,167,0.0,1.0,51,0.00,,---,0.00,VWS V14.01,2013-06-21 02:49:00,
2013-06-20 19:54:00,71.9,53.3,29.87,SSE,167,0.0,1.0,52,0.00,,---,0.00,VWS V14.01,2013-06-21 02:54:00,
2013-06-20 19:59:00,71.6,54.1,29.87,SSE,167,0.0,0.0,54,0.00,,---,0.00,VWS V14.01,2013-06-21 02:59:00,
2013-06-20 20:04:00,71.3,54.3,29.87,SSE,167,0.0,0.0,55,0.00,,---,0.00,VWS V14.01,2013-06-21 03:04:00,
2013-06-20 20:09:00,70.9,54.0,29.87,SSE,167,0.0,0.0,55,0.00,,---,0.00,VWS V14.01,2013-06-21 03:09:00,
2013-06-20 20:14:00,70.4,53.0,29.87,SSE,167,0.0,2.0,54,0.00,,---,0.00,VWS V14.01,2013-06-21 03:14:00,
2013-06-20 20:19:00,70.1,52.7,29.87,SSE,167,0.0,2.0,54,0.00,,---,0.00,VWS V14.01,2013-06-21 03:19:00,
2013-06-20 20:24:00,69.8,52.9,29.87,SSE,167,0.0,2.0,55,0.00,,---,0.00,VWS V14.01,2013-06-21 03:24:00,
2013-06-20 20:29:00,69.5,53.1,29.88,SSE,167,0.0,0.0,56,0.00,,---,0.00,VWS V14.01,2013-06-21 03:29:00,
2013-06-20 20:34:00,69.2,53.3,29.88,SSE,167,0.0,2.0,57,0.00,,---,0.00,VWS V14.01,2013-06-21 03:34:00,
2013-06-20 20:39:00,68.9,53.5,29.88,SSE,167,0.0,2.0,58,0.00,,---,0.00,VWS V14.01,2013-06-21 03:39:00,
2013-06-20 20:44:00,68.6,53.7,29.88,SSE,167,0.0,2.0,59,0.00,,---,0.00,VWS V14.01,2013-06-21 03:44:00,
2013-06-20 20:49:00,68.3,53.9,29.88,SSE,167,0.0,2.0,60,0.00,,---,0.00,VWS V14.01,2013-06-21 03:49:00,
2013-06-20 20:54:00,68.0,53.6,29.88,SSE,167,0.0,2.0,60,0.00,,---,0.00,VWS V14.01,2013-06-21 03:54:00,
2013-06-20 20:59:00,67.8,53.4,29.88,SSE,167,0.0,0.0,60,0.00,,---,0.00,VWS V14.01,2013-06-21 03:59:00,
2013-06-20 21:01:00,67.8,53.9,29.88,SSE,167,0.0,0.0,61,0.00,,---,0.00,VWS V14.01,2013-06-21 04:01:00,
2013-06-20 21:06:00,67.5,54.0,29.88,SSE,167,0.0,0.0,62,0.00,,---,0.00,VWS V14.01,2013-06-21 04:06:00,
2013-06-20 21:11:00,67.2,54.2,29.88,SSE,167,0.0,0.0,63,0.00,,---,0.00,VWS V14.01,2013-06-21 04:11:00,
2013-06-20 21:16:00,67.0,54.9,29.88,SSE,167,0.0,0.0,65,0.00,,---,0.00,VWS V14.01,2013-06-21 04:16:00,
2013-06-20 21:21:00,66.8,54.7,29.89,SSE,167,0.0,0.0,65,0.00,,---,0.00,VWS V14.01,2013-06-21 04:21:00,
2013-06-20 21:26:00,66.5,54.8,29.89,SSE,167,0.0,0.0,66,0.00,,---,0.00,VWS V14.01,2013-06-21 04:26:00,
2013-06-20 21:31:00,66.1,54.8,29.89,SSE,167,0.0,0.0,67,0.00,,---,0.00,VWS V14.01,2013-06-21 04:31:00,
2013-06-20 21:36:00,65.8,55.4,29.89,SSE,167,0.0,0.0,69,0.00,,---,0.00,VWS V14.01,2013-06-21 04:36:00,
2013-06-20 21:41:00,65.5,54.3,29.89,SSE,167,0.0,0.0,67,0.00,,---,0.00,VWS V14.01,2013-06-21 04:41:00,
2013-06-20 21:46:00,65.4,54.6,29.89,SSE,167,0.0,0.0,68,0.00,,---,0.00,VWS V14.01,2013-06-21 04:46:00,
2013-06-20 21:51:00,65.1,54.3,29.89,SSE,167,0.0,0.0,68,0.00,,---,0.00,VWS V14.01,2013-06-21 04:51:00,
2013-06-20 21:56:00,64.9,54.1,29.90,SSE,167,0.0,0.0,68,0.00,,---,0.00,VWS V14.01,2013-06-21 04:56:00,
2013-06-20 22:01:00,64.7,54.3,29.90,SSE,167,0.0,0.0,69,0.00,,---,0.00,VWS V14.01,2013-06-21 05:01:00,
2013-06-20 22:06:00,64.4,54.4,29.90,SSE,167,0.0,0.0,70,0.00,,---,0.00,VWS V14.01,2013-06-21 05:06:00,
2013-06-20 22:11:00,64.3,54.3,29.90,SSE,167,0.0,0.0,70,0.00,,---,0.00,VWS V14.01,2013-06-21 05:11:00,
2013-06-20 22:16:00,64.3,54.3,29.90,SSE,167,0.0,0.0,70,0.00,,---,0.00,VWS V14.01,2013-06-21 05:16:00,
2013-06-20 22:21:00,64.2,54.2,29.90,SSE,167,0.0,0.0,70,0.00,,---,0.00,VWS V14.01,2013-06-21 05:21:00,
2013-06-20 22:26:00,63.9,54.3,29.90,SSE,167,0.0,0.0,71,0.00,,---,0.00,VWS V14.01,2013-06-21 05:26:00,
2013-06-20 22:31:00,63.4,53.5,29.90,SSE,167,0.0,0.0,70,0.00,,---,0.00,VWS V14.01,2013-06-21 05:31:00,
2013-06-20 22:36:00,63.1,53.9,29.90,SSE,167,0.0,0.0,72,0.00,,---,0.00,VWS V14.01,2013-06-21 05:36:00,
2013-06-20 22:41:00,62.8,53.7,29.90,SSE,167,0.0,0.0,72,0.00,,---,0.00,VWS V14.01,2013-06-21 05:41:00,
2013-06-20 22:46:00,62.4,54.0,29.90,SSE,167,0.0,0.0,74,0.00,,---,0.00,VWS V14.01,2013-06-21 05:46:00,
2013-06-20 22:51:00,62.2,53.8,29.90,SSE,167,0.0,0.0,74,0.00,,---,0.00,VWS V14.01,2013-06-21 05:51:00,
2013-06-20 22:56:00,62.0,54.0,29.90,SSE,167,0.0,0.0,75,0.00,,---,0.00,VWS V14.01,2013-06-21 05:56:00,
2013-06-20 23:01:00,61.8,53.8,29.90,SSE,167,0.0,0.0,75,0.00,,---,0.00,VWS V14.01,2013-06-21 06:01:00,
2013-06-20 23:06:00,61.6,53.6,29.90,SSE,167,0.0,0.0,75,0.00,,---,0.00,VWS V14.01,2013-06-21 06:06:00,
2013-06-20 23:11:00,61.4,53.8,29.90,SSE,167,0.0,0.0,76,0.00,,---,0.00,VWS V14.01,2013-06-21 06:11:00,
2013-06-20 23:16:00,61.0,53.4,29.90,SSE,167,0.0,0.0,76,0.00,,---,0.00,VWS V14.01,2013-06-21 06:16:00,
2013-06-20 23:21:00,60.8,53.5,29.90,SSE,167,0.0,0.0,77,0.00,,---,0.00,VWS V14.01,2013-06-21 06:21:00,
2013-06-20 23:26:00,60.8,53.9,29.90,SSE,167,0.0,0.0,78,0.00,,---,0.00,VWS V14.01,2013-06-21 06:26:00,
2013-06-20 23:31:00,60.8,53.9,29.90,SSE,167,0.0,0.0,78,0.00,,---,0.00,VWS V14.01,2013-06-21 06:31:00,
2013-06-20 23:36:00,60.9,54.3,29.90,SSE,167,0.0,0.0,79,0.00,,---,0.00,VWS V14.01,2013-06-21 06:36:00,
2013-06-20 23:41:00,61.2,54.6,29.89,SSE,167,0.0,0.0,79,0.00,,---,0.00,VWS V14.01,2013-06-21 06:41:00,
2013-06-20 23:46:00,61.2,54.3,29.89,SSE,167,0.0,0.0,78,0.00,,---,0.00,VWS V14.01,2013-06-21 06:46:00,
2013-06-20 23:51:00,61.1,54.2,29.89,SSE,167,0.0,0.0,78,0.00,,---,0.00,VWS V14.01,2013-06-21 06:51:00,
2013-06-20 23:56:00,61.0,54.5,29.89,SSE,167,0.0,0.0,79,0.00,,---,0.00,VWS V14.01,2013-06-21 06:56:00,